createdAt,value
2023-05-04T00:00:22.653Z,100.00
2023-05-04T00:02:50.651Z,100.00
2023-05-04T00:05:18.234Z,100.00
2023-05-04T00:07:45.941Z,100.00
2023-05-04T00:10:13.416Z,100.00
2023-05-04T00:12:41.539Z,100.00
2023-05-04T00:15:09.467Z,100.00
2023-05-04T00:17:37.177Z,100.00
2023-05-04T00:20:05.523Z,100.00
2023-05-04T00:22:33.512Z,100.00
2023-05-04T00:25:01.067Z,100.00
2023-05-04T00:27:28.743Z,100.00
2023-05-04T00:29:56.431Z,100.00
2023-05-04T00:32:23.994Z,100.00
2023-05-04T00:34:52.130Z,100.00
2023-05-04T00:37:20.918Z,100.00
2023-05-04T00:39:48.381Z,100.00
2023-05-04T00:42:16.040Z,100.00
2023-05-04T00:44:44.916Z,100.00
2023-05-04T00:47:13.688Z,100.00
2023-05-04T00:49:41.659Z,100.00
2023-05-04T00:52:10.658Z,100.00
2023-05-04T00:54:38.744Z,100.00
2023-05-04T00:57:06.547Z,100.00
2023-05-04T00:59:34.507Z,100.00
2023-05-04T01:02:02.020Z,100.00
2023-05-04T01:04:29.996Z,100.00
2023-05-04T01:07:06.134Z,100.00
2023-05-04T01:09:43.745Z,100.00
2023-05-04T01:12:18.132Z,100.00
2023-05-04T01:14:47.518Z,100.00
2023-05-04T01:17:15.051Z,100.00
2023-05-04T01:19:42.962Z,100.00
2023-05-04T01:22:10.499Z,100.00
2023-05-04T01:24:38.428Z,100.00
2023-05-04T01:27:24.653Z,100.00
2023-05-04T01:30:00.244Z,100.00
2023-05-04T01:32:29.735Z,100.00
2023-05-04T01:35:00.248Z,100.00
2023-05-04T01:37:28.073Z,100.00
2023-05-04T01:39:55.702Z,100.00
2023-05-04T01:42:24.478Z,100.00
2023-05-04T01:44:51.996Z,100.00
2023-05-04T01:47:19.593Z,100.00
2023-05-04T01:49:47.108Z,100.00
2023-05-04T01:52:16.635Z,100.00
2023-05-04T01:54:44.942Z,100.00
2023-05-04T01:57:12.377Z,100.00
2023-05-04T01:59:39.821Z,100.00
2023-05-04T02:02:09.059Z,100.00
2023-05-04T02:04:36.673Z,100.00
2023-05-04T02:07:04.245Z,100.00
2023-05-04T02:09:31.940Z,100.00
2023-05-04T02:12:00.622Z,100.00
2023-05-04T02:14:28.212Z,100.00
2023-05-04T02:16:56.363Z,100.00
2023-05-04T02:19:23.876Z,100.00
2023-05-04T02:21:52.498Z,100.00
2023-05-04T02:24:22.380Z,100.00
2023-05-04T02:26:50.336Z,100.00
2023-05-04T02:29:17.775Z,100.00
2023-05-04T02:31:45.400Z,100.00
2023-05-04T02:34:14.779Z,100.00
2023-05-04T02:36:47.566Z,100.00
2023-05-04T02:39:15.372Z,100.00
2023-05-04T02:41:42.901Z,100.00
2023-05-04T02:44:10.376Z,100.00
2023-05-04T02:46:37.975Z,100.00
2023-05-04T02:49:05.575Z,100.00
2023-05-04T02:51:33.560Z,100.00
2023-05-04T02:54:01.112Z,100.00
2023-05-04T02:56:28.665Z,100.00
2023-05-04T02:58:56.087Z,100.00
2023-05-04T03:01:23.749Z,100.00
2023-05-04T03:03:51.421Z,100.00
2023-05-04T03:06:18.931Z,100.00
2023-05-04T03:08:46.449Z,100.00
2023-05-04T03:11:16.542Z,100.00
2023-05-04T03:13:44.251Z,100.00
2023-05-04T03:16:12.234Z,100.00
2023-05-04T03:18:39.992Z,100.00
2023-05-04T03:21:07.537Z,100.00
2023-05-04T03:23:36.380Z,100.00
2023-05-04T03:26:04.411Z,100.00
2023-05-04T03:28:32.285Z,100.00
2023-05-04T03:30:59.757Z,100.00
2023-05-04T03:33:27.425Z,100.00
2023-05-04T03:35:56.514Z,100.00
2023-05-04T03:38:23.961Z,100.00
2023-05-04T03:40:53.137Z,100.00
2023-05-04T03:43:20.673Z,100.00
2023-05-04T03:45:49.694Z,100.00
2023-05-04T03:48:18.156Z,100.00
2023-05-04T03:50:45.573Z,100.00
2023-05-04T03:53:13.171Z,100.00
2023-05-04T03:55:41.937Z,100.00
2023-05-04T03:58:09.417Z,100.00
2023-05-04T04:00:36.976Z,100.00
2023-05-04T04:03:11.627Z,100.00
2023-05-04T04:05:39.882Z,100.00
2023-05-04T04:08:07.773Z,100.00
2023-05-04T04:10:35.761Z,100.00
2023-05-04T04:13:03.502Z,100.00
2023-05-04T04:15:31.095Z,100.00
2023-05-04T04:17:58.776Z,100.00
2023-05-04T04:20:26.515Z,100.00
2023-05-04T04:22:54.260Z,100.00
2023-05-04T04:25:21.766Z,100.00
2023-05-04T04:27:49.672Z,100.00
2023-05-04T04:30:17.249Z,100.00
2023-05-04T04:32:45.838Z,100.00
2023-05-04T04:35:14.297Z,100.00
2023-05-04T04:37:42.009Z,100.00
2023-05-04T04:40:10.425Z,100.00
2023-05-04T04:42:38.586Z,100.00
2023-05-04T04:45:06.922Z,100.00
2023-05-04T04:47:34.630Z,100.00
2023-05-04T04:50:03.556Z,100.00
2023-05-04T04:52:32.621Z,100.00
2023-05-04T04:55:00.360Z,100.00
2023-05-04T04:57:29.379Z,100.00
2023-05-04T04:59:57.981Z,100.00
2023-05-04T05:02:25.552Z,100.00
2023-05-04T05:04:54.120Z,100.00
2023-05-04T05:07:21.989Z,100.00
2023-05-04T05:09:49.611Z,100.00
2023-05-04T05:12:17.184Z,100.00
2023-05-04T05:14:45.807Z,100.00
2023-05-04T05:17:13.316Z,100.00
2023-05-04T05:19:42.346Z,100.00
2023-05-04T05:22:10.061Z,100.00
2023-05-04T05:24:37.619Z,100.00
2023-05-04T05:27:05.078Z,100.00
2023-05-04T05:29:32.576Z,100.00
2023-05-04T05:32:00.088Z,100.00
2023-05-04T05:34:27.510Z,100.00
2023-05-04T05:36:55.400Z,100.00
2023-05-04T05:39:23.686Z,100.00
2023-05-04T05:41:51.104Z,100.00
2023-05-04T05:44:18.606Z,97.01
2023-05-04T05:46:46.251Z,89.39
2023-05-04T05:49:14.018Z,80.12
2023-05-04T05:51:42.032Z,82.43
2023-05-04T05:54:09.566Z,93.24
2023-05-04T05:56:38.266Z,91.76
2023-05-04T05:59:09.538Z,89.11
2023-05-04T06:01:37.422Z,81.49
2023-05-04T06:04:05.132Z,81.14
2023-05-04T06:06:33.106Z,80.39
2023-05-04T06:09:01.084Z,82.07
2023-05-04T06:11:28.738Z,82.66
2023-05-04T06:13:56.311Z,80.05
2023-05-04T06:16:23.900Z,79.41
2023-05-04T06:18:52.060Z,78.20
2023-05-04T06:21:19.581Z,77.51
2023-05-04T06:23:49.982Z,76.77
2023-05-04T06:26:19.809Z,75.80
2023-05-04T06:28:48.205Z,74.43
2023-05-04T06:31:15.746Z,74.73
2023-05-04T06:33:43.218Z,73.96
2023-05-04T06:36:12.270Z,73.11
2023-05-04T06:38:39.738Z,71.73
2023-05-04T06:41:07.271Z,70.96
2023-05-04T06:43:35.058Z,70.82
2023-05-04T06:46:03.432Z,70.12
2023-05-04T06:48:32.295Z,69.88
2023-05-04T06:51:01.534Z,68.93
2023-05-04T06:53:30.981Z,68.41
2023-05-04T06:55:58.437Z,67.95
2023-05-04T06:58:26.177Z,67.22
2023-05-04T07:00:53.878Z,66.79
2023-05-04T07:03:21.625Z,66.82
2023-05-04T07:05:50.814Z,66.35
2023-05-04T07:08:19.750Z,66.42
2023-05-04T07:10:47.346Z,64.97
2023-05-04T07:13:15.178Z,63.11
2023-05-04T07:15:42.694Z,61.66
2023-05-04T07:18:10.281Z,61.16
2023-05-04T07:20:37.913Z,59.82
2023-05-04T07:23:05.409Z,60.07
2023-05-04T07:25:33.088Z,58.84
2023-05-04T07:28:01.144Z,58.22
2023-05-04T07:30:28.659Z,57.15
2023-05-04T07:32:56.558Z,56.31
2023-05-04T07:35:24.378Z,55.43
2023-05-04T07:37:52.073Z,55.59
2023-05-04T07:40:20.307Z,55.66
2023-05-04T07:42:47.833Z,55.88
2023-05-04T07:45:17.018Z,55.47
2023-05-04T07:47:44.684Z,55.96
2023-05-04T07:50:12.819Z,55.00
2023-05-04T07:52:40.406Z,54.78
2023-05-04T07:55:08.586Z,54.00
2023-05-04T07:57:37.899Z,54.33
2023-05-04T08:00:06.997Z,54.96
2023-05-04T08:02:41.229Z,55.06
2023-05-04T08:05:09.359Z,54.39
2023-05-04T08:07:37.028Z,54.24
2023-05-04T08:10:05.224Z,53.36
2023-05-04T08:12:33.646Z,54.11
2023-05-04T08:15:02.213Z,54.33
2023-05-04T08:17:30.212Z,55.03
2023-05-04T08:19:57.901Z,55.06
2023-05-04T08:22:25.451Z,54.23
2023-05-04T08:24:53.111Z,53.65
2023-05-04T08:27:20.622Z,54.74
2023-05-04T08:29:48.139Z,54.41
2023-05-04T08:32:15.606Z,54.38
2023-05-04T08:34:43.181Z,53.59
2023-05-04T08:37:10.733Z,53.12
2023-05-04T08:39:40.554Z,52.98
2023-05-04T08:42:10.382Z,52.58
2023-05-04T08:44:38.040Z,53.03
2023-05-04T08:47:05.886Z,52.89
2023-05-04T08:49:33.527Z,53.13
2023-05-04T08:52:01.924Z,54.68
2023-05-04T08:54:29.748Z,53.19
2023-05-04T08:56:58.858Z,53.99
2023-05-04T08:59:29.222Z,54.00
2023-05-04T09:01:59.396Z,54.48
2023-05-04T09:04:29.552Z,54.79
2023-05-04T09:06:58.706Z,57.04
2023-05-04T09:09:28.692Z,57.66
2023-05-04T09:11:56.436Z,56.42
2023-05-04T09:14:33.101Z,55.96
2023-05-04T09:17:04.320Z,54.12
2023-05-04T09:19:35.543Z,54.28
2023-05-04T09:22:14.993Z,54.31
2023-05-04T09:24:42.818Z,52.53
2023-05-04T09:27:16.170Z,53.71
2023-05-04T09:29:44.460Z,51.84
2023-05-04T09:32:14.417Z,50.52
2023-05-04T09:34:52.739Z,50.46
2023-05-04T09:37:22.133Z,50.69
2023-05-04T09:39:52.573Z,50.96
2023-05-04T09:42:20.881Z,49.35
2023-05-04T09:45:00.058Z,48.82
2023-05-04T09:47:39.381Z,48.74
2023-05-04T09:50:25.441Z,49.43
2023-05-04T09:52:54.841Z,48.32
2023-05-04T09:55:23.052Z,48.72
2023-05-04T09:57:50.998Z,47.64
2023-05-04T10:00:19.438Z,47.65
2023-05-04T10:02:48.169Z,45.89
2023-05-04T10:05:17.951Z,46.22
2023-05-04T10:07:46.446Z,44.96
2023-05-04T10:10:15.229Z,44.82
2023-05-04T10:12:45.106Z,45.07
2023-05-04T10:15:14.624Z,43.80
2023-05-04T10:18:13.644Z,44.27
2023-05-04T10:20:59.865Z,47.09
2023-05-04T10:23:52.925Z,47.63
2023-05-04T10:26:38.396Z,48.26
2023-05-04T10:29:05.854Z,48.02
2023-05-04T10:31:41.139Z,47.99
2023-05-04T10:34:10.453Z,47.61
2023-05-04T10:36:44.612Z,48.43
2023-05-04T10:39:20.371Z,48.78
2023-05-04T10:41:59.221Z,47.89
2023-05-04T10:44:28.749Z,47.74
2023-05-04T10:47:00.865Z,48.15
2023-05-04T10:49:29.196Z,47.45
2023-05-04T10:52:13.483Z,47.89
2023-05-04T10:54:42.199Z,47.37
2023-05-04T10:57:17.583Z,47.89
2023-05-04T10:59:58.939Z,48.48
2023-05-04T11:02:28.885Z,48.06
2023-05-04T11:05:06.063Z,47.42
2023-05-04T11:07:34.545Z,47.80
2023-05-04T11:10:03.447Z,48.06
2023-05-04T11:12:33.230Z,47.35
2023-05-04T11:15:08.341Z,48.12
2023-05-04T11:17:49.048Z,46.52
2023-05-04T11:20:27.538Z,46.79
2023-05-04T11:22:55.176Z,46.11
2023-05-04T11:25:29.696Z,45.54
2023-05-04T11:28:01.545Z,45.55
2023-05-04T11:30:34.579Z,45.28
2023-05-04T11:33:11.828Z,44.51
2023-05-04T11:35:40.655Z,44.32
2023-05-04T11:38:08.448Z,44.34
2023-05-04T11:40:37.561Z,44.57
2023-05-04T11:43:05.280Z,43.09
2023-05-04T11:45:35.384Z,43.97
2023-05-04T11:48:03.569Z,43.92
2023-05-04T11:50:31.824Z,44.24
2023-05-04T11:53:06.942Z,44.99
2023-05-04T11:55:36.193Z,44.77
2023-05-04T11:58:08.577Z,44.27
2023-05-04T12:00:43.299Z,44.44
2023-05-04T12:03:13.961Z,44.97
2023-05-04T12:05:52.703Z,44.51
2023-05-04T12:08:27.491Z,44.32
2023-05-04T12:11:21.860Z,44.54
2023-05-04T12:14:06.977Z,43.14
2023-05-04T12:16:35.006Z,42.10
2023-05-04T12:19:08.311Z,42.43
2023-05-04T12:21:36.249Z,41.40
2023-05-04T12:24:05.969Z,41.59
2023-05-04T12:26:33.570Z,41.89
2023-05-04T12:29:01.182Z,41.81
2023-05-04T12:31:30.430Z,42.23
2023-05-04T12:33:58.176Z,42.08
2023-05-04T12:36:25.724Z,42.39
2023-05-04T12:38:53.869Z,42.26
2023-05-04T12:41:21.520Z,42.06
2023-05-04T12:43:49.471Z,41.82
2023-05-04T12:46:21.476Z,41.71
2023-05-04T12:48:49.185Z,42.42
2023-05-04T12:51:16.685Z,41.59
2023-05-04T12:53:44.294Z,41.23
2023-05-04T12:56:11.816Z,40.47
2023-05-04T12:58:39.390Z,40.39
2023-05-04T13:01:07.513Z,40.46
2023-05-04T13:03:35.582Z,40.87
2023-05-04T13:06:04.443Z,40.51
2023-05-04T13:08:33.651Z,40.14
2023-05-04T13:11:01.272Z,40.53
2023-05-04T13:13:29.755Z,40.33
2023-05-04T13:15:57.630Z,40.22
2023-05-04T13:18:28.092Z,40.62
2023-05-04T13:20:56.275Z,40.18
2023-05-04T13:23:24.377Z,39.43
2023-05-04T13:25:52.514Z,39.54
2023-05-04T13:28:20.046Z,39.42
2023-05-04T13:30:47.640Z,38.51
2023-05-04T13:33:28.070Z,38.97
2023-05-04T13:35:58.317Z,39.24
2023-05-04T13:38:26.577Z,38.96
2023-05-04T13:40:55.354Z,39.10
2023-05-04T13:43:23.190Z,38.13
2023-05-04T13:45:51.366Z,37.74
2023-05-04T13:48:18.891Z,38.40
2023-05-04T13:50:46.447Z,38.01
2023-05-04T13:53:14.060Z,37.92
2023-05-04T13:55:41.577Z,38.49
2023-05-04T13:58:09.147Z,38.55
2023-05-04T14:00:36.799Z,37.89
2023-05-04T14:03:04.782Z,38.19
2023-05-04T14:05:32.631Z,38.43
2023-05-04T14:08:00.129Z,38.65
2023-05-04T14:10:27.974Z,38.47
2023-05-04T14:12:56.119Z,37.89
2023-05-04T14:15:23.826Z,37.35
2023-05-04T14:17:51.434Z,36.87
2023-05-04T14:20:19.193Z,36.93
2023-05-04T14:22:46.754Z,37.02
2023-05-04T14:25:14.893Z,37.44
2023-05-04T14:27:43.439Z,37.59
2023-05-04T14:30:11.700Z,37.65
2023-05-04T14:32:40.871Z,37.39
2023-05-04T14:35:10.375Z,38.24
2023-05-04T14:37:38.958Z,37.90
2023-05-04T14:40:08.626Z,38.38
2023-05-04T14:42:37.310Z,38.10
2023-05-04T14:45:06.387Z,37.83
2023-05-04T14:47:34.240Z,37.26
2023-05-04T14:50:02.330Z,37.83
2023-05-04T14:52:29.945Z,38.06
2023-05-04T14:54:57.500Z,37.83
2023-05-04T14:57:25.061Z,37.99
2023-05-04T14:59:52.738Z,38.88
2023-05-04T15:02:20.955Z,39.46
2023-05-04T15:04:49.093Z,38.86
2023-05-04T15:07:18.716Z,39.25
2023-05-04T15:09:46.441Z,38.53
2023-05-04T15:12:14.367Z,38.64
2023-05-04T15:14:41.912Z,38.19
2023-05-04T15:17:09.508Z,37.86
2023-05-04T15:19:38.254Z,38.15
2023-05-04T15:22:07.180Z,39.08
2023-05-04T15:24:35.808Z,39.71
2023-05-04T15:27:03.775Z,40.36
2023-05-04T15:29:31.447Z,40.96
2023-05-04T15:31:59.029Z,41.08
2023-05-04T15:34:26.723Z,42.13
2023-05-04T15:36:55.198Z,42.63
2023-05-04T15:39:22.838Z,42.93
2023-05-04T15:41:50.483Z,43.30
2023-05-04T15:44:21.014Z,43.28
2023-05-04T15:46:48.886Z,43.36
2023-05-04T15:49:16.405Z,43.55
2023-05-04T15:51:43.904Z,44.16
2023-05-04T15:54:11.441Z,43.87
2023-05-04T15:56:38.957Z,44.83
2023-05-04T15:59:06.637Z,44.41
2023-05-04T16:01:34.627Z,44.44
2023-05-04T16:04:02.431Z,44.32
2023-05-04T16:06:31.306Z,44.53
2023-05-04T16:09:01.653Z,44.29
2023-05-04T16:11:30.525Z,44.42
2023-05-04T16:13:58.017Z,44.96
2023-05-04T16:16:26.001Z,45.08
2023-05-04T16:18:53.712Z,45.68
2023-05-04T16:21:21.375Z,45.14
2023-05-04T16:23:48.937Z,45.56
2023-05-04T16:26:16.783Z,44.17
2023-05-04T16:28:45.413Z,43.43
2023-05-04T16:31:13.121Z,42.88
2023-05-04T16:33:47.156Z,41.84
2023-05-04T16:36:15.187Z,42.28
2023-05-04T16:38:42.745Z,42.15
2023-05-04T16:41:10.222Z,42.04
2023-05-04T16:43:37.840Z,42.10
2023-05-04T16:46:05.484Z,42.26
2023-05-04T16:48:33.295Z,42.42
2023-05-04T16:51:00.783Z,42.23
2023-05-04T16:53:30.787Z,41.72
2023-05-04T16:55:58.484Z,41.28
2023-05-04T16:58:26.958Z,41.02
2023-05-04T17:00:54.593Z,42.91
2023-05-04T17:03:22.259Z,42.32
2023-05-04T17:05:50.055Z,42.14
2023-05-04T17:08:18.325Z,42.67
2023-05-04T17:10:46.052Z,42.75
2023-05-04T17:13:14.320Z,42.85
2023-05-04T17:15:41.810Z,42.76
2023-05-04T17:18:09.568Z,43.02
2023-05-04T17:20:37.026Z,43.15
2023-05-04T17:23:04.564Z,43.63
2023-05-04T17:25:32.305Z,43.88
2023-05-04T17:27:59.887Z,44.65
2023-05-04T17:30:27.370Z,44.08
2023-05-04T17:32:57.346Z,44.86
2023-05-04T17:35:26.294Z,45.08
2023-05-04T17:37:57.943Z,44.65
2023-05-04T17:40:27.989Z,45.20
2023-05-04T17:42:56.428Z,45.30
2023-05-04T17:45:24.078Z,45.29
2023-05-04T17:47:51.940Z,45.90
2023-05-04T17:50:19.998Z,46.05
2023-05-04T17:52:55.409Z,46.15
2023-05-04T17:55:27.792Z,46.12
2023-05-04T17:57:55.386Z,46.98
2023-05-04T18:00:23.072Z,46.68
2023-05-04T18:02:50.901Z,46.80
2023-05-04T18:05:18.665Z,47.12
2023-05-04T18:07:46.348Z,47.51
2023-05-04T18:10:13.910Z,48.03
2023-05-04T18:12:41.744Z,48.15
2023-05-04T18:15:10.012Z,48.21
2023-05-04T18:17:38.312Z,48.04
2023-05-04T18:20:08.374Z,47.83
2023-05-04T18:22:36.967Z,48.45
2023-05-04T18:25:04.803Z,48.32
2023-05-04T18:27:34.199Z,48.22
2023-05-04T18:30:03.481Z,49.04
2023-05-04T18:32:31.731Z,49.01
2023-05-04T18:34:59.313Z,48.96
2023-05-04T18:37:30.446Z,49.20
2023-05-04T18:39:58.718Z,50.39
2023-05-04T18:42:26.363Z,51.92
2023-05-04T18:44:54.881Z,52.95
2023-05-04T18:47:22.450Z,51.82
2023-05-04T18:49:54.700Z,50.93
2023-05-04T18:52:22.761Z,51.04
2023-05-04T18:54:51.073Z,52.12
2023-05-04T18:57:18.583Z,54.50
2023-05-04T18:59:46.215Z,54.32
2023-05-04T19:02:13.854Z,54.55
2023-05-04T19:04:41.480Z,55.32
2023-05-04T19:07:11.998Z,56.12
2023-05-04T19:09:39.519Z,56.34
2023-05-04T19:12:07.371Z,56.73
2023-05-04T19:14:36.686Z,57.62
2023-05-04T19:17:05.516Z,57.41
2023-05-04T19:19:36.939Z,57.58
2023-05-04T19:22:04.836Z,59.03
2023-05-04T19:24:34.427Z,59.46
2023-05-04T19:27:02.023Z,61.58
2023-05-04T19:29:29.779Z,62.08
2023-05-04T19:31:59.542Z,62.27
2023-05-04T19:34:29.534Z,65.65
2023-05-04T19:36:57.177Z,68.51
2023-05-04T19:39:25.176Z,70.25
2023-05-04T19:41:52.729Z,72.29
2023-05-04T19:44:21.096Z,72.26
2023-05-04T19:46:51.623Z,72.42
2023-05-04T19:49:19.841Z,74.02
2023-05-04T19:51:47.754Z,76.13
2023-05-04T19:54:15.586Z,76.12
2023-05-04T19:56:43.221Z,73.64
2023-05-04T19:59:10.906Z,73.98
2023-05-04T20:01:38.489Z,76.48
2023-05-04T20:04:08.338Z,79.46
2023-05-04T20:06:36.929Z,80.30
2023-05-04T20:09:04.453Z,80.27
2023-05-04T20:11:32.028Z,80.55
2023-05-04T20:14:00.068Z,78.68
2023-05-04T20:16:27.794Z,81.03
2023-05-04T20:18:55.329Z,81.91
2023-05-04T20:21:23.275Z,81.73
2023-05-04T20:23:50.858Z,80.25
2023-05-04T20:26:18.514Z,80.63
2023-05-04T20:28:46.500Z,80.82
2023-05-04T20:31:13.988Z,81.92
2023-05-04T20:33:41.544Z,83.91
2023-05-04T20:36:11.651Z,86.81
2023-05-04T20:38:39.502Z,87.70
2023-05-04T20:41:08.248Z,88.75
2023-05-04T20:43:36.312Z,89.40
2023-05-04T20:46:04.555Z,89.62
2023-05-04T20:48:32.452Z,91.21
2023-05-04T20:51:12.796Z,92.15
2023-05-04T20:53:42.017Z,92.44
2023-05-04T20:56:09.813Z,92.22
2023-05-04T20:58:37.562Z,93.36
2023-05-04T21:01:05.805Z,94.57
2023-05-04T21:03:34.325Z,94.31
2023-05-04T21:06:02.679Z,94.25
2023-05-04T21:08:30.779Z,93.92
2023-05-04T21:10:58.806Z,92.75
2023-05-04T21:13:26.932Z,95.61
2023-05-04T21:15:54.471Z,97.14
2023-05-04T21:18:22.656Z,97.10
2023-05-04T21:20:50.356Z,95.97
2023-05-04T21:23:17.920Z,94.37
2023-05-04T21:25:45.524Z,95.26
2023-05-04T21:28:13.104Z,93.53
2023-05-04T21:30:42.215Z,93.81
2023-05-04T21:33:09.682Z,97.68
2023-05-04T21:35:37.098Z,98.20
2023-05-04T21:38:04.659Z,100.00
2023-05-04T21:40:35.301Z,100.00
2023-05-04T21:43:02.890Z,100.00
2023-05-04T21:45:31.784Z,100.00
2023-05-04T21:47:59.714Z,100.00
2023-05-04T21:50:27.332Z,96.89
2023-05-04T21:52:54.958Z,95.05
2023-05-04T21:55:22.667Z,93.82
2023-05-04T21:57:50.351Z,92.90
2023-05-04T22:00:18.918Z,91.91
2023-05-04T22:02:46.683Z,88.81
2023-05-04T22:05:14.365Z,87.94
2023-05-04T22:07:42.718Z,87.46
2023-05-04T22:10:11.332Z,86.90
2023-05-04T22:12:39.172Z,89.13
2023-05-04T22:15:07.822Z,97.37
2023-05-04T22:17:35.408Z,98.83
2023-05-04T22:20:03.368Z,99.65
2023-05-04T22:22:31.248Z,96.66
2023-05-04T22:24:58.870Z,93.27
2023-05-04T22:27:26.437Z,92.26
2023-05-04T22:29:53.914Z,90.68
2023-05-04T22:32:21.511Z,91.27
2023-05-04T22:34:49.022Z,91.80
2023-05-04T22:37:16.477Z,91.87
2023-05-04T22:39:44.012Z,92.20
2023-05-04T22:42:11.510Z,92.03
2023-05-04T22:44:39.054Z,91.72
2023-05-04T22:47:06.771Z,92.38
2023-05-04T22:49:34.620Z,92.92
2023-05-04T22:52:02.217Z,92.38
2023-05-04T22:54:29.895Z,91.87
2023-05-04T22:56:57.584Z,97.05
2023-05-04T22:59:25.120Z,100.00
2023-05-04T23:01:53.724Z,100.00
2023-05-04T23:04:21.579Z,100.00
2023-05-04T23:06:49.161Z,100.00
2023-05-04T23:09:17.574Z,100.00
2023-05-04T23:11:45.274Z,100.00
2023-05-04T23:14:12.923Z,100.00
2023-05-04T23:16:40.438Z,100.00
2023-05-04T23:19:07.883Z,100.00
2023-05-04T23:21:35.905Z,100.00
2023-05-04T23:24:03.491Z,100.00
2023-05-04T23:26:31.015Z,100.00
2023-05-04T23:28:58.858Z,100.00
2023-05-04T23:31:26.451Z,100.00
2023-05-04T23:33:53.896Z,100.00
2023-05-04T23:36:22.085Z,100.00
2023-05-04T23:38:49.551Z,100.00
2023-05-04T23:41:17.151Z,100.00
2023-05-04T23:43:44.603Z,100.00
2023-05-04T23:46:12.813Z,100.00
2023-05-04T23:48:40.566Z,100.00
2023-05-04T23:51:09.010Z,100.00
2023-05-04T23:53:36.867Z,100.00
2023-05-04T23:56:06.300Z,100.00
2023-05-04T23:58:34.614Z,100.00
